createdAt,value
2022-12-25T00:00:08.243Z,262.27
2022-12-25T00:02:56.587Z,261.80
2022-12-25T00:05:44.692Z,239.88
2022-12-25T00:08:34.501Z,256.17
2022-12-25T00:11:23.104Z,251.00
2022-12-25T00:14:11.493Z,249.45
2022-12-25T00:16:59.753Z,257.40
2022-12-25T00:19:47.978Z,252.90
2022-12-25T00:22:36.058Z,235.30
2022-12-25T00:25:25.378Z,249.45
2022-12-25T00:28:13.335Z,245.23
2022-12-25T00:31:05.657Z,254.70
2022-12-25T00:33:54.134Z,258.15
2022-12-25T00:36:42.477Z,249.38
2022-12-25T00:39:30.472Z,239.20
2022-12-25T00:42:19.865Z,276.30
2022-12-25T00:45:08.755Z,243.20
2022-12-25T00:47:56.720Z,253.88
2022-12-25T00:50:44.769Z,247.43
2022-12-25T00:53:33.238Z,244.43
2022-12-25T00:56:21.163Z,250.88
2022-12-25T00:59:10.640Z,261.70
2022-12-25T01:02:18.844Z,258.55
2022-12-25T01:05:08.427Z,239.50
2022-12-25T01:07:56.405Z,248.02
2022-12-25T01:10:43.740Z,250.57
2022-12-25T01:13:34.559Z,254.00
2022-12-25T01:16:24.034Z,251.05
2022-12-25T01:19:12.098Z,248.27
2022-12-25T01:22:00.083Z,252.65
2022-12-25T01:24:48.244Z,263.33
2022-12-25T01:27:36.504Z,248.65
2022-12-25T01:30:24.758Z,251.30
2022-12-25T01:33:14.078Z,245.52
2022-12-25T01:36:02.121Z,270.00
2022-12-25T01:38:50.890Z,259.10
2022-12-25T01:41:38.946Z,246.55
2022-12-25T01:45:18.583Z,266.08
2022-12-25T01:48:12.803Z,250.48
2022-12-25T01:51:06.629Z,247.63
2022-12-25T01:53:58.787Z,241.30
2022-12-25T01:56:49.983Z,241.88
2022-12-25T01:59:38.048Z,251.20
2022-12-25T02:02:26.901Z,248.88
2022-12-25T02:05:19.978Z,258.48
2022-12-25T02:08:11.021Z,256.92
2022-12-25T02:10:59.227Z,256.73
2022-12-25T02:13:47.204Z,255.88
2022-12-25T02:16:58.317Z,281.70
2022-12-25T02:20:19.447Z,253.68
2022-12-25T02:23:31.396Z,232.18
2022-12-25T02:26:36.582Z,242.50
2022-12-25T02:29:33.166Z,231.10
2022-12-25T02:32:27.660Z,234.48
2022-12-25T02:35:21.144Z,264.55
2022-12-25T02:38:14.018Z,244.73
2022-12-25T02:41:07.511Z,260.85
2022-12-25T02:44:14.292Z,243.38
2022-12-25T02:47:25.200Z,241.52
2022-12-25T02:50:33.744Z,233.48
2022-12-25T02:53:39.913Z,236.23
2022-12-25T02:56:47.089Z,239.27
2022-12-25T02:59:56.336Z,243.25
2022-12-25T03:03:20.544Z,244.65
2022-12-25T03:06:27.233Z,224.57
2022-12-25T03:09:38.585Z,250.43
2022-12-25T03:12:39.711Z,229.65
2022-12-25T03:15:45.396Z,244.13
2022-12-25T03:18:36.177Z,250.38
2022-12-25T03:21:41.734Z,231.25
2022-12-25T03:24:47.431Z,240.63
2022-12-25T03:27:36.454Z,271.15
2022-12-25T03:30:45.460Z,238.30
2022-12-25T03:34:09.321Z,251.93
2022-12-25T03:37:18.286Z,247.02
2022-12-25T03:40:32.789Z,243.98
2022-12-25T03:43:46.859Z,233.07
2022-12-25T03:47:13.319Z,244.90
2022-12-25T03:50:25.141Z,234.85
2022-12-25T03:53:37.028Z,240.45
2022-12-25T03:56:43.764Z,232.63
2022-12-25T03:59:49.464Z,223.85
2022-12-25T04:02:55.425Z,216.93
2022-12-25T04:06:02.580Z,230.77
2022-12-25T04:09:19.516Z,216.60
2022-12-25T04:12:25.394Z,229.47
2022-12-25T04:15:31.139Z,234.87
2022-12-25T04:18:36.678Z,233.93
2022-12-25T04:21:43.719Z,218.02
2022-12-25T04:24:49.473Z,225.30
2022-12-25T04:27:55.302Z,247.25
2022-12-25T04:31:00.967Z,244.03
2022-12-25T04:34:06.290Z,225.63
2022-12-25T04:36:55.602Z,237.20
2022-12-25T04:39:43.543Z,229.02
2022-12-25T04:42:31.751Z,238.82
2022-12-25T04:45:20.112Z,250.98
2022-12-25T04:48:08.143Z,249.38
2022-12-25T04:50:56.309Z,259.85
2022-12-25T04:53:46.410Z,245.00
2022-12-25T04:56:36.451Z,259.17
2022-12-25T04:59:28.064Z,252.55
2022-12-25T05:02:16.078Z,249.67
2022-12-25T05:05:04.362Z,241.33
2022-12-25T05:07:52.390Z,254.35
2022-12-25T05:10:41.992Z,265.73
2022-12-25T05:13:29.970Z,245.30
2022-12-25T05:16:19.877Z,249.10
2022-12-25T05:19:08.241Z,247.88
2022-12-25T05:21:56.340Z,259.45
2022-12-25T05:24:44.378Z,268.60
2022-12-25T05:27:33.680Z,265.30
2022-12-25T05:30:21.635Z,256.98
2022-12-25T05:33:09.583Z,249.68
2022-12-25T05:35:57.745Z,242.05
2022-12-25T05:38:45.694Z,271.15
2022-12-25T05:41:34.751Z,256.35
2022-12-25T05:44:24.460Z,263.83
2022-12-25T05:47:12.427Z,253.38
2022-12-25T05:50:00.373Z,257.05
2022-12-25T05:52:48.281Z,264.10
2022-12-25T05:55:36.666Z,247.52
2022-12-25T05:58:24.642Z,254.55
2022-12-25T06:01:16.928Z,246.32
2022-12-25T06:04:10.318Z,265.40
2022-12-25T06:07:00.486Z,267.20
2022-12-25T06:09:48.635Z,250.73
2022-12-25T06:12:36.615Z,256.20
2022-12-25T06:15:24.559Z,245.27
2022-12-25T06:18:13.902Z,258.67
2022-12-25T06:21:01.844Z,257.90
2022-12-25T06:23:50.205Z,260.17
2022-12-25T06:26:38.179Z,262.52
2022-12-25T06:29:26.216Z,266.52
2022-12-25T06:32:14.121Z,278.80
2022-12-25T06:35:03.674Z,247.02
2022-12-25T06:37:51.889Z,251.57
2022-12-25T06:40:39.881Z,245.25
2022-12-25T06:43:27.846Z,254.60
2022-12-25T06:46:15.905Z,255.95
2022-12-25T06:49:03.875Z,240.98
2022-12-25T06:51:53.189Z,264.33
2022-12-25T06:54:41.117Z,266.35
2022-12-25T06:57:29.056Z,256.60
2022-12-25T07:00:17.178Z,248.32
2022-12-25T07:03:05.803Z,270.90
2022-12-25T07:05:33.632Z,258.05
2022-12-25T07:08:02.956Z,249.85
2022-12-25T07:10:30.653Z,250.00
2022-12-25T07:12:58.294Z,284.88
2022-12-25T07:15:26.009Z,266.00
2022-12-25T07:17:53.652Z,280.83
2022-12-25T07:20:21.315Z,271.83
2022-12-25T07:22:48.992Z,271.08
2022-12-25T07:25:17.947Z,264.15
2022-12-25T07:27:45.628Z,254.38
2022-12-25T07:30:14.255Z,280.40
2022-12-25T07:32:46.821Z,270.75
2022-12-25T07:35:17.645Z,267.15
2022-12-25T07:37:45.383Z,258.67
2022-12-25T07:40:13.757Z,257.73
2022-12-25T07:42:42.742Z,252.07
2022-12-25T07:45:11.374Z,257.67
2022-12-25T07:47:39.645Z,233.98
2022-12-25T07:50:08.536Z,258.75
2022-12-25T07:52:43.033Z,256.02
2022-12-25T07:55:11.412Z,260.88
2022-12-25T07:57:39.028Z,263.05
2022-12-25T08:00:09.512Z,254.70
2022-12-25T08:02:40.841Z,269.17
2022-12-25T08:05:09.657Z,267.77
2022-12-25T08:07:37.373Z,262.27
2022-12-25T08:10:05.751Z,264.67
2022-12-25T08:12:33.644Z,263.70
2022-12-25T08:15:01.326Z,259.70
2022-12-25T08:17:30.513Z,256.75
2022-12-25T08:19:58.167Z,278.60
2022-12-25T08:22:25.826Z,257.25
2022-12-25T08:24:53.497Z,262.95
2022-12-25T08:27:21.135Z,290.40
2022-12-25T08:29:48.811Z,281.48
2022-12-25T08:32:16.488Z,285.50
2022-12-25T08:34:45.558Z,275.67
2022-12-25T08:37:13.263Z,278.65
2022-12-25T08:39:41.089Z,272.48
2022-12-25T08:42:08.909Z,263.33
2022-12-25T08:44:37.519Z,276.05
2022-12-25T08:47:05.750Z,268.35
2022-12-25T08:49:33.733Z,272.30
2022-12-25T08:52:02.982Z,275.77
2022-12-25T08:54:32.416Z,266.25
2022-12-25T08:57:03.050Z,278.17
2022-12-25T08:59:30.933Z,271.83
2022-12-25T09:01:58.791Z,276.42
2022-12-25T09:04:26.732Z,272.13
2022-12-25T09:06:54.372Z,284.70
2022-12-25T09:09:27.065Z,265.30
2022-12-25T09:11:54.959Z,265.05
2022-12-25T09:14:23.001Z,280.67
2022-12-25T09:16:51.003Z,262.42
2022-12-25T09:19:18.811Z,287.65
2022-12-25T09:21:46.603Z,270.23
2022-12-25T09:24:14.487Z,289.05
2022-12-25T09:26:43.550Z,299.27
2022-12-25T09:29:11.246Z,288.10
2022-12-25T09:31:38.960Z,294.48
2022-12-25T09:34:06.714Z,296.20
2022-12-25T09:36:34.454Z,287.60
2022-12-25T09:39:02.443Z,307.42
2022-12-25T09:41:34.893Z,287.67
2022-12-25T09:44:08.991Z,284.27
2022-12-25T09:46:42.352Z,290.90
2022-12-25T09:49:19.723Z,284.02
2022-12-25T09:51:51.287Z,275.75
2022-12-25T09:54:23.228Z,277.92
2022-12-25T09:56:51.092Z,294.48
2022-12-25T09:59:26.190Z,301.58
2022-12-25T10:02:21.187Z,298.13
2022-12-25T10:05:04.367Z,305.85
2022-12-25T10:07:44.356Z,310.38
2022-12-25T10:10:25.852Z,298.02
2022-12-25T10:13:05.208Z,306.80
2022-12-25T10:15:43.381Z,314.40
2022-12-25T10:18:44.594Z,305.00
2022-12-25T10:21:15.336Z,296.73
2022-12-25T10:23:48.318Z,298.65
2022-12-25T10:26:18.314Z,300.20
2022-12-25T10:28:47.779Z,300.95
2022-12-25T10:31:21.333Z,316.42
2022-12-25T10:33:50.258Z,305.42
2022-12-25T10:36:20.660Z,309.05
2022-12-25T10:38:48.438Z,288.30
2022-12-25T10:41:29.382Z,315.45
2022-12-25T10:43:58.553Z,319.42
2022-12-25T10:46:30.001Z,304.73
2022-12-25T10:49:00.514Z,329.45
2022-12-25T10:51:32.884Z,316.98
2022-12-25T10:54:03.193Z,326.77
2022-12-25T10:56:31.217Z,306.17
2022-12-25T10:59:06.137Z,321.75
2022-12-25T11:01:35.436Z,332.08
2022-12-25T11:04:03.520Z,310.48
2022-12-25T11:06:34.433Z,319.38
2022-12-25T11:09:03.591Z,314.88
2022-12-25T11:11:32.031Z,326.15
2022-12-25T11:14:02.684Z,310.17
2022-12-25T11:16:33.971Z,307.92
2022-12-25T11:19:03.611Z,291.45
2022-12-25T11:21:33.639Z,314.13
2022-12-25T11:24:03.420Z,306.45
2022-12-25T11:26:36.432Z,309.45
2022-12-25T11:29:06.473Z,303.60
2022-12-25T11:31:40.106Z,302.95
2022-12-25T11:34:20.553Z,294.23
2022-12-25T11:36:50.543Z,299.08
2022-12-25T11:39:27.883Z,305.25
2022-12-25T11:42:00.107Z,325.20
2022-12-25T11:44:38.685Z,316.90
2022-12-25T11:47:12.932Z,321.00
2022-12-25T11:49:50.296Z,309.23
2022-12-25T11:52:20.985Z,322.02
2022-12-25T11:54:54.247Z,322.55
2022-12-25T11:57:25.104Z,294.80
2022-12-25T11:59:56.968Z,332.85
2022-12-25T12:02:32.124Z,330.08
2022-12-25T12:05:10.123Z,308.65
2022-12-25T12:07:42.643Z,317.17
2022-12-25T12:10:18.077Z,332.50
2022-12-25T12:12:56.328Z,319.85
2022-12-25T12:15:30.460Z,329.65
2022-12-25T12:18:09.489Z,331.95
2022-12-25T12:20:39.000Z,333.95
2022-12-25T12:23:16.439Z,320.92
2022-12-25T12:25:45.776Z,334.13
2022-12-25T12:28:21.568Z,347.08
2022-12-25T12:30:59.694Z,339.27
2022-12-25T12:33:32.544Z,306.35
2022-12-25T12:36:05.037Z,347.65
2022-12-25T12:38:35.104Z,319.63
2022-12-25T12:41:04.677Z,360.27
2022-12-25T12:43:37.271Z,321.90
2022-12-25T12:46:16.513Z,332.83
2022-12-25T12:48:46.624Z,310.42
2022-12-25T12:51:29.224Z,333.73
2022-12-25T12:54:18.111Z,315.00
2022-12-25T12:56:56.482Z,327.05
2022-12-25T12:59:25.129Z,320.20
2022-12-25T13:02:04.677Z,330.88
2022-12-25T13:04:48.598Z,302.58
2022-12-25T13:07:32.192Z,305.33
2022-12-25T13:10:11.532Z,321.08
2022-12-25T13:12:39.432Z,307.00
2022-12-25T13:15:13.697Z,324.67
2022-12-25T13:17:44.225Z,313.90
2022-12-25T13:20:21.162Z,321.15
2022-12-25T13:22:52.947Z,314.33
2022-12-25T13:25:23.343Z,319.58
2022-12-25T13:27:59.771Z,336.30
2022-12-25T13:30:27.924Z,323.77
2022-12-25T13:32:56.942Z,324.40
2022-12-25T13:35:25.033Z,344.88
2022-12-25T13:37:54.720Z,345.63
2022-12-25T13:40:26.051Z,337.42
2022-12-25T13:42:57.829Z,323.67
2022-12-25T13:45:28.807Z,332.90
2022-12-25T13:47:58.065Z,329.50
2022-12-25T13:50:29.097Z,345.95
2022-12-25T13:53:12.078Z,333.55
2022-12-25T13:55:41.001Z,323.42
2022-12-25T13:58:19.459Z,340.23
2022-12-25T14:00:49.634Z,320.30
2022-12-25T14:03:21.211Z,308.27
2022-12-25T14:05:57.118Z,315.95
2022-12-25T14:08:28.368Z,316.08
2022-12-25T14:10:57.838Z,337.23
2022-12-25T14:13:28.807Z,331.92
2022-12-25T14:15:57.602Z,327.58
2022-12-25T14:18:26.917Z,305.15
2022-12-25T14:21:03.571Z,301.83
2022-12-25T14:23:41.175Z,332.65
2022-12-25T14:26:16.168Z,331.65
2022-12-25T14:28:48.930Z,317.98
2022-12-25T14:31:17.674Z,328.25
2022-12-25T14:33:46.861Z,325.58
2022-12-25T14:36:15.367Z,341.30
2022-12-25T14:38:44.587Z,325.63
2022-12-25T14:41:33.120Z,324.90
2022-12-25T14:44:02.502Z,318.55
2022-12-25T14:46:32.212Z,309.35
2022-12-25T14:49:01.695Z,329.88
2022-12-25T14:51:31.452Z,320.70
2022-12-25T14:54:03.700Z,313.33
2022-12-25T14:56:37.989Z,335.55
2022-12-25T14:59:07.647Z,338.08
2022-12-25T15:01:38.228Z,320.00
2022-12-25T15:04:09.077Z,339.95
2022-12-25T15:06:37.590Z,326.15
2022-12-25T15:09:14.343Z,305.05
2022-12-25T15:11:42.382Z,322.55
2022-12-25T15:14:10.074Z,315.88
2022-12-25T15:16:44.036Z,319.58
2022-12-25T15:19:24.920Z,344.92
2022-12-25T15:21:53.848Z,322.88
2022-12-25T15:24:22.936Z,334.60
2022-12-25T15:26:53.138Z,311.88
2022-12-25T15:29:44.504Z,312.15
2022-12-25T15:32:15.172Z,313.88
2022-12-25T15:34:42.888Z,293.20
2022-12-25T15:37:10.660Z,319.70
2022-12-25T15:39:39.822Z,300.13
2022-12-25T15:42:12.771Z,312.13
2022-12-25T15:44:41.853Z,289.08
2022-12-25T15:47:10.607Z,303.15
2022-12-25T15:49:38.360Z,306.75
2022-12-25T15:52:06.441Z,303.58
2022-12-25T15:54:34.771Z,286.88
2022-12-25T15:57:06.228Z,301.70
2022-12-25T15:59:34.526Z,296.10
2022-12-25T16:02:02.972Z,285.88
2022-12-25T16:04:31.727Z,287.45
2022-12-25T16:07:00.402Z,297.65
2022-12-25T16:09:28.136Z,298.92
2022-12-25T16:11:55.834Z,311.52
2022-12-25T16:14:24.893Z,295.85
2022-12-25T16:16:52.610Z,273.65
2022-12-25T16:19:20.293Z,285.42
2022-12-25T16:21:48.218Z,288.33
2022-12-25T16:24:15.907Z,288.92
2022-12-25T16:26:44.352Z,262.13
2022-12-25T16:29:12.055Z,297.15
2022-12-25T16:31:41.653Z,281.00
2022-12-25T16:34:10.331Z,270.95
2022-12-25T16:36:38.023Z,280.10
2022-12-25T16:39:06.309Z,264.80
2022-12-25T16:41:35.183Z,294.25
2022-12-25T16:44:08.952Z,295.60
2022-12-25T16:46:37.863Z,279.50
2022-12-25T16:49:07.321Z,270.23
2022-12-25T16:51:35.055Z,285.25
2022-12-25T16:54:02.789Z,278.20
2022-12-25T16:56:30.821Z,309.52
2022-12-25T16:58:59.314Z,309.70
2022-12-25T17:01:27.254Z,310.23
2022-12-25T17:03:55.204Z,311.05
2022-12-25T17:06:26.861Z,315.77
2022-12-25T17:08:57.877Z,312.33
2022-12-25T17:11:29.463Z,327.23
2022-12-25T17:13:57.590Z,319.70
2022-12-25T17:16:27.225Z,327.92
2022-12-25T17:18:55.629Z,324.50
2022-12-25T17:21:26.286Z,332.67
2022-12-25T17:23:59.631Z,328.55
2022-12-25T17:26:29.998Z,322.92
2022-12-25T17:28:58.096Z,314.05
2022-12-25T17:31:25.862Z,322.90
2022-12-25T17:33:53.820Z,329.00
2022-12-25T17:36:22.720Z,300.50
2022-12-25T17:38:51.770Z,326.38
2022-12-25T17:41:20.830Z,308.25
2022-12-25T17:43:49.280Z,318.67
2022-12-25T17:46:19.513Z,313.50
2022-12-25T17:48:47.337Z,304.98
2022-12-25T17:51:16.535Z,320.67
2022-12-25T17:53:46.287Z,331.85
2022-12-25T17:56:16.294Z,323.15
2022-12-25T17:58:44.625Z,325.30
2022-12-25T18:01:14.365Z,332.67
2022-12-25T18:03:42.789Z,328.05
2022-12-25T18:06:13.237Z,317.63
2022-12-25T18:08:42.376Z,306.55
2022-12-25T18:11:13.618Z,305.48
2022-12-25T18:13:43.358Z,320.73
2022-12-25T18:16:12.330Z,315.65
2022-12-25T18:18:40.674Z,317.25
2022-12-25T18:21:08.994Z,320.27
2022-12-25T18:23:37.308Z,305.67
2022-12-25T18:26:07.067Z,314.08
2022-12-25T18:28:35.520Z,315.15
2022-12-25T18:31:08.404Z,309.30
2022-12-25T18:33:36.879Z,300.13
2022-12-25T18:36:05.598Z,313.52
2022-12-25T18:38:33.690Z,305.30
2022-12-25T18:41:01.329Z,312.02
2022-12-25T18:43:51.393Z,308.95
2022-12-25T18:46:18.151Z,297.50
2022-12-25T18:48:46.090Z,292.17
2022-12-25T18:51:15.196Z,302.00
2022-12-25T18:53:42.904Z,306.33
2022-12-25T18:56:13.017Z,314.65
2022-12-25T18:58:41.508Z,307.38
2022-12-25T19:01:14.836Z,306.67
2022-12-25T19:03:44.964Z,325.10
2022-12-25T19:06:17.522Z,283.33
2022-12-25T19:08:45.268Z,319.20
2022-12-25T19:11:14.490Z,323.05
2022-12-25T19:13:42.362Z,313.42
2022-12-25T19:16:10.928Z,298.63
2022-12-25T19:18:39.170Z,314.75
2022-12-25T19:21:09.972Z,302.50
2022-12-25T19:23:38.350Z,307.02
2022-12-25T19:26:06.970Z,314.33
2022-12-25T19:28:34.889Z,307.00
2022-12-25T19:31:07.219Z,322.05
2022-12-25T19:33:36.768Z,303.17
2022-12-25T19:36:06.580Z,307.35
2022-12-25T19:38:36.085Z,289.88
2022-12-25T19:41:06.738Z,307.33
2022-12-25T19:43:36.207Z,298.30
2022-12-25T19:46:04.884Z,303.08
2022-12-25T19:48:33.930Z,310.05
2022-12-25T19:51:01.896Z,299.85
2022-12-25T19:53:30.902Z,299.63
2022-12-25T19:56:03.001Z,301.08
2022-12-25T19:58:30.767Z,273.05
2022-12-25T20:00:59.459Z,304.67
2022-12-25T20:03:27.695Z,302.77
2022-12-25T20:05:55.593Z,303.00
2022-12-25T20:08:23.610Z,305.02
2022-12-25T20:10:51.735Z,331.02
2022-12-25T20:13:21.458Z,331.27
2022-12-25T20:15:49.487Z,317.33
2022-12-25T20:18:17.746Z,333.75
2022-12-25T20:20:45.681Z,330.50
2022-12-25T20:23:13.353Z,318.67
2022-12-25T20:25:41.753Z,323.52
2022-12-25T20:28:09.541Z,330.25
2022-12-25T20:30:40.816Z,324.20
2022-12-25T20:33:10.038Z,318.55
2022-12-25T20:35:37.762Z,357.35
2022-12-25T20:38:05.442Z,348.48
2022-12-25T20:40:53.054Z,343.13
2022-12-25T20:43:20.805Z,350.60
2022-12-25T20:45:52.601Z,369.02
2022-12-25T20:48:20.349Z,342.33
2022-12-25T20:50:48.078Z,350.25
2022-12-25T20:53:15.999Z,341.38
2022-12-25T20:55:46.195Z,354.15
2022-12-25T20:58:14.019Z,350.35
2022-12-25T21:00:42.674Z,362.77
2022-12-25T21:03:12.389Z,345.15
2022-12-25T21:05:59.603Z,357.20
2022-12-25T21:08:48.786Z,349.52
2022-12-25T21:11:36.785Z,344.35
2022-12-25T21:14:26.139Z,336.17
2022-12-25T21:17:14.135Z,332.42
2022-12-25T21:20:03.960Z,336.90
2022-12-25T21:22:51.965Z,320.90
2022-12-25T21:25:39.932Z,338.55
2022-12-25T21:28:30.023Z,352.88
2022-12-25T21:31:18.534Z,335.80
2022-12-25T21:34:05.547Z,348.05
2022-12-25T21:36:54.787Z,350.45
2022-12-25T21:39:42.841Z,330.50
2022-12-25T21:42:31.800Z,319.77
2022-12-25T21:45:19.768Z,329.58
2022-12-25T21:48:07.688Z,316.38
2022-12-25T21:51:13.402Z,342.98
2022-12-25T21:54:03.200Z,329.13
2022-12-25T21:56:51.412Z,312.02
2022-12-25T21:59:39.647Z,334.55
2022-12-25T22:02:27.747Z,338.05
2022-12-25T22:05:37.482Z,330.60
2022-12-25T22:08:29.257Z,347.10
2022-12-25T22:11:36.309Z,332.70
2022-12-25T22:14:51.058Z,344.23
2022-12-25T22:18:01.114Z,357.45
2022-12-25T22:20:49.055Z,337.73
2022-12-25T22:23:36.986Z,360.67
2022-12-25T22:26:26.247Z,372.90
2022-12-25T22:29:14.305Z,355.20
2022-12-25T22:32:02.230Z,363.85
2022-12-25T22:34:50.280Z,354.42
2022-12-25T22:37:38.614Z,357.98
2022-12-25T22:40:26.566Z,362.98
2022-12-25T22:43:15.875Z,384.13
2022-12-25T22:46:03.900Z,357.77
2022-12-25T22:48:52.017Z,344.95
2022-12-25T22:51:39.939Z,352.80
2022-12-25T22:54:30.032Z,363.27
2022-12-25T22:57:18.097Z,396.00
2022-12-25T23:00:10.221Z,384.63
2022-12-25T23:02:58.436Z,365.02
2022-12-25T23:05:54.607Z,370.75
2022-12-25T23:08:42.565Z,360.33
2022-12-25T23:11:30.926Z,394.40
2022-12-25T23:14:36.318Z,366.27
2022-12-25T23:17:43.425Z,378.95
2022-12-25T23:20:51.552Z,367.85
2022-12-25T23:23:57.186Z,380.38
2022-12-25T23:26:45.712Z,377.60
2022-12-25T23:29:36.803Z,372.60
2022-12-25T23:32:27.966Z,399.20
2022-12-25T23:35:15.948Z,367.25
2022-12-25T23:38:03.889Z,377.90
2022-12-25T23:40:52.321Z,378.25
2022-12-25T23:43:40.256Z,344.95
2022-12-25T23:46:28.339Z,374.58
2022-12-25T23:49:18.045Z,359.63
2022-12-25T23:52:06.533Z,380.20
2022-12-25T23:54:54.459Z,382.30
2022-12-25T23:57:42.540Z,372.63
